Time;durP1;ratioP1;P1;durP2;ratioP2;P2;SDS_P1;SDS_P2;PMS_P1;PMS_P2;Temp;Humidity;BMP_temperature;BMP_pressure;BME280_temperature;BME280_humidity;BME280_pressure;Samples;Min_cycle;Max_cycle;Signal;HPM_P1;HPM_P2
2022/05/21 00:00:20;;;;;;;6.43;3.83;;;;;;;13.56;72.26;100446.38;5090678;28;20032;-28
2022/05/21 00:02:47;;;;;;;6.13;3.95;;;;;;;13.57;72.21;100471.34;5109268;28;20027;-29
2022/05/21 00:05:13;;;;;;;7.45;3.80;;;;;;;13.46;72.01;100456.81;5074082;28;20066;-35
2022/05/21 00:07:39;;;;;;;7.68;3.78;;;;;;;13.82;71.99;100471.16;5090929;28;20031;-31
2022/05/21 00:10:05;;;;;;;8.43;3.92;;;;;;;13.97;70.17;100476.88;5109109;28;20081;-28
2022/05/21 00:12:30;;;;;;;7.45;3.95;;;;;;;14.00;69.49;100467.56;5109120;28;20173;-28
2022/05/21 00:14:57;;;;;;;7.45;4.15;;;;;;;13.82;70.22;100468.47;5108931;28;20169;-28
2022/05/21 00:17:22;;;;;;;8.10;4.28;;;;;;;14.22;68.25;100454.38;5109274;28;20749;-29
2022/05/21 00:19:48;;;;;;;13.35;4.22;;;;;;;14.40;67.84;100466.88;5109227;28;20106;-30
2022/05/21 00:22:14;;;;;;;9.95;4.30;;;;;;;14.32;67.40;100459.16;5109119;28;20034;-29
2022/05/21 00:24:39;;;;;;;7.15;4.60;;;;;;;13.91;68.74;100447.50;5108880;28;20111;-30
2022/05/21 00:27:05;;;;;;;7.60;4.75;;;;;;;13.86;69.10;100464.28;5108953;28;20019;-28
2022/05/21 00:29:31;;;;;;;8.40;4.45;;;;;;;13.99;69.28;100460.56;5108601;28;20032;-32
2022/05/21 00:31:56;;;;;;;8.70;4.60;;;;;;;13.53;69.92;100441.50;5109002;28;20073;-29
2022/05/21 00:34:22;;;;;;;9.15;4.53;;;;;;;13.60;69.98;100460.13;5090549;28;20040;-33
2022/05/21 00:36:47;;;;;;;10.77;4.95;;;;;;;13.56;69.81;100461.66;5107753;28;20092;-29
2022/05/21 00:39:13;;;;;;;7.38;4.30;;;;;;;13.39;70.86;100445.41;5108852;28;20052;-29
2022/05/21 00:41:39;;;;;;;31.45;6.82;;;;;;;13.70;69.78;100471.13;5109067;28;20498;-30
2022/05/21 00:44:06;;;;;;;11.07;4.03;;;;;;;13.72;68.31;100458.31;5089905;28;20036;-34
2022/05/21 00:46:32;;;;;;;8.43;4.70;;;;;;;13.63;68.39;100447.09;5108408;28;20047;-28
2022/05/21 00:49:26;;;;;;;7.03;3.72;;;;;;;13.74;68.27;100466.13;5090299;28;20066;-28
2022/05/21 00:52:02;;;;;;;6.00;3.60;;;;;;;13.53;69.61;100468.28;5096525;28;20059;-29
2022/05/21 00:54:31;;;;;;;6.90;3.70;;;;;;;13.28;70.66;100457.69;5108002;28;20042;-30
2022/05/21 00:57:01;;;;;;;7.50;4.03;;;;;;;12.94;70.96;100438.56;5090172;28;20046;-28
2022/05/21 01:02:16;;;;;;;7.22;4.50;;;;;;;12.63;73.23;100463.63;5108242;28;20038;-28
2022/05/21 01:04:45;;;;;;;10.27;4.55;;;;;;;12.66;71.50;100468.50;5089393;28;20024;-30
2022/05/21 01:07:15;;;;;;;7.90;4.57;;;;;;;12.55;71.83;100471.94;5089672;28;20031;-28
2022/05/21 01:09:48;;;;;;;6.38;3.22;;;;;;;12.46;73.43;100472.25;5108393;28;20054;-29
2022/05/21 01:12:13;;;;;;;6.70;3.10;;;;;;;12.25;73.65;100445.88;5089661;28;20043;-28
2022/05/21 01:14:39;;;;;;;6.90;3.00;;;;;;;11.98;75.17;100453.34;5107672;28;20070;-30
2022/05/21 01:17:04;;;;;;;4.53;2.83;;;;;;;12.15;74.70;100445.56;5107739;28;20027;-33
2022/05/21 01:19:30;;;;;;;4.88;2.65;;;;;;;12.45;72.68;100437.69;5107443;28;20147;-28
2022/05/21 01:21:56;;;;;;;4.80;2.88;;;;;;;12.66;72.34;100445.25;5108173;28;20114;-31
2022/05/21 01:24:22;;;;;;;5.78;3.17;;;;;;;12.96;72.13;100447.19;5089337;28;20035;-29
2022/05/21 01:26:48;;;;;;;5.72;2.92;;;;;;;12.42;72.71;100457.66;5107782;28;20039;-30
2022/05/21 01:29:25;;;;;;;6.20;3.05;;;;;;;13.20;69.52;100458.81;5089388;28;20034;-30
2022/05/21 01:31:53;;;;;;;8.02;2.90;;;;;;;12.56;72.06;100446.81;5107774;28;20081;-32
2022/05/21 01:34:20;;;;;;;9.53;3.37;;;;;;;12.67;71.14;100430.03;5089345;28;20495;-28
2022/05/21 01:36:46;;;;;;;7.53;3.10;;;;;;;12.96;71.48;100457.06;5089337;28;20280;-29
2022/05/21 01:39:12;;;;;;;5.30;3.20;;;;;;;12.85;71.50;100446.06;5089082;28;20063;-29
2022/05/21 01:41:41;;;;;;;6.05;2.85;;;;;;;13.03;71.07;100447.88;5088988;28;20024;-28
2022/05/21 01:46:52;;;;;;;4.50;2.90;;;;;;;12.08;74.51;100426.13;5108003;28;20038;-32
2022/05/21 01:49:18;;;;;;;6.72;2.90;;;;;;;11.76;76.07;100426.94;5111625;28;20031;-28
2022/05/21 01:51:43;;;;;;;16.23;4.65;;;;;;;12.00;74.14;100421.88;5093605;28;20024;-28
2022/05/21 01:54:09;;;;;;;12.10;3.75;;;;;;;12.37;72.29;100422.72;5111751;28;20464;-29
2022/05/21 01:56:34;;;;;;;12.57;3.97;;;;;;;11.72;74.42;100430.28;5111127;28;20084;-28
2022/05/21 01:58:59;;;;;;;5.03;3.10;;;;;;;11.95;73.68;100433.22;5111353;28;20028;-31
2022/05/21 02:01:25;;;;;;;10.15;3.30;;;;;;;12.10;72.33;100432.88;5111186;28;20019;-29
2022/05/21 02:03:50;;;;;;;6.20;3.33;;;;;;;11.99;73.07;100428.22;5111378;28;20030;-31
2022/05/21 02:06:16;;;;;;;6.88;3.63;;;;;;;11.85;73.06;100414.16;5111277;28;20597;-28
2022/05/21 02:08:41;;;;;;;5.53;3.30;;;;;;;11.76;74.46;100426.94;5111305;28;20027;-34
2022/05/21 02:11:07;;;;;;;5.50;3.53;;;;;;;11.92;74.13;100422.94;5111071;28;20047;-31
2022/05/21 02:13:34;;;;;;;6.45;3.58;;;;;;;11.45;75.67;100398.44;5092562;28;20034;-30
2022/05/21 02:16:00;;;;;;;6.68;3.88;;;;;;;11.58;75.38;100389.50;5093021;28;20023;-30
2022/05/21 02:18:26;;;;;;;7.68;4.20;;;;;;;12.31;73.29;100412.09;5092816;28;20031;-31
2022/05/21 02:20:53;;;;;;;7.72;4.07;;;;;;;12.11;74.45;100412.31;5092760;28;20024;-30
2022/05/21 02:23:18;;;;;;;9.50;4.47;;;;;;;11.69;75.95;100404.00;5092434;28;20093;-28
2022/05/21 02:25:44;;;;;;;7.15;3.97;;;;;;;12.36;73.51;100415.75;5111108;28;20024;-29
2022/05/21 02:28:10;;;;;;;6.70;4.30;;;;;;;12.19;73.88;100415.50;5092452;28;20088;-32
2022/05/21 02:30:36;;;;;;;6.75;3.75;;;;;;;12.13;74.17;100420.91;5092404;28;20497;-28
2022/05/21 02:33:02;;;;;;;6.90;4.25;;;;;;;12.13;73.80;100418.25;5110669;28;20137;-28
2022/05/21 02:35:28;;;;;;;7.30;4.05;;;;;;;11.98;73.69;100423.94;5092553;28;20027;-31
2022/05/21 02:40:37;;;;;;;5.63;3.80;;;;;;;12.11;73.08;100428.34;5110158;28;20058;-31
2022/05/21 02:43:03;;;;;;;8.73;3.92;;;;;;;12.08;72.55;100402.88;5110688;28;20024;-28
2022/05/21 02:45:29;;;;;;;7.95;4.05;;;;;;;12.14;72.51;100423.38;5110592;28;20057;-33
2022/05/21 02:47:55;;;;;;;7.03;4.00;;;;;;;11.66;75.18;100411.41;5110521;28;20463;-28
2022/05/21 02:50:32;;;;;;;6.45;3.60;;;;;;;11.59;75.10;100421.34;5091952;28;20122;-29
2022/05/21 02:52:59;;;;;;;7.82;4.07;;;;;;;11.21;77.17;100416.84;5110885;28;20096;-30
2022/05/21 02:55:25;;;;;;;6.15;3.47;;;;;;;11.00;77.84;100401.16;5110520;28;20097;-27
2022/05/21 02:57:50;;;;;;;5.97;3.83;;;;;;;11.06;78.00;100421.66;5110214;28;20023;-31
2022/05/21 03:00:22;;;;;;;6.55;3.75;;;;;;;10.83;78.88;100424.84;5109624;28;20118;-30
2022/05/21 03:02:50;;;;;;;6.85;3.55;;;;;;;11.20;76.53;100411.75;5110338;28;20034;-28
2022/05/21 03:05:17;;;;;;;7.53;4.47;;;;;;;11.54;75.33;100423.81;5091613;28;20196;-32
2022/05/21 03:07:45;;;;;;;9.05;4.28;;;;;;;11.50;74.93;100422.63;5110003;28;20111;-29
2022/05/21 03:10:22;;;;;;;6.60;3.80;;;;;;;11.60;75.21;100430.97;5092065;28;20041;-31
2022/05/21 03:12:55;;;;;;;8.45;4.38;;;;;;;11.56;74.84;100429.75;5091192;28;20031;-29
2022/05/21 03:15:32;;;;;;;9.00;5.22;;;;;;;11.65;74.30;100428.47;5109517;28;20130;-34
2022/05/21 03:18:03;;;;;;;13.55;6.18;;;;;;;11.55;74.36;100428.16;5091487;28;20126;-33
2022/05/21 03:20:29;;;;;;;20.17;7.90;;;;;;;11.42;73.74;100406.84;5109559;28;20127;-30
2022/05/21 03:22:54;;;;;;;16.90;7.95;;;;;;;11.36;75.66;100424.59;5109862;28;20020;-28
2022/05/21 03:25:19;;;;;;;17.67;6.10;;;;;;;11.26;75.95;100401.00;5109534;28;20084;-32
2022/05/21 03:27:45;;;;;;;12.82;5.70;;;;;;;11.17;78.51;100428.16;5109402;28;20016;-30
2022/05/21 03:30:15;;;;;;;13.68;5.43;;;;;;;11.54;77.39;100431.84;5109582;28;20035;-28
2022/05/21 03:32:41;;;;;;;12.05;5.45;;;;;;;11.21;78.76;100411.50;5090793;28;20529;-28
2022/05/21 03:35:08;;;;;;;10.55;5.05;;;;;;;11.25;77.06;100431.41;5091017;28;20034;-30
2022/05/21 03:37:34;;;;;;;10.85;4.82;;;;;;;11.24;75.69;100424.44;5091000;28;20028;-28
2022/05/21 03:40:00;;;;;;;21.13;8.48;;;;;;;11.37;76.02;100417.38;5109270;28;20177;-31
2022/05/21 03:42:25;;;;;;;19.52;8.20;;;;;;;11.57;75.89;100418.06;5090871;28;20110;-28
2022/05/21 03:44:51;;;;;;;29.88;10.68;;;;;;;11.60;76.09;100416.81;5109130;28;20073;-29
2022/05/21 03:47:17;;;;;;;31.52;13.15;;;;;;;11.57;76.02;100420.72;5109002;28;20063;-32
2022/05/21 03:49:42;;;;;;;38.75;12.40;;;;;;;11.39;76.58;100423.31;5109672;28;20031;-29
2022/05/21 03:52:08;;;;;;;28.58;12.73;;;;;;;11.34;78.20;100404.44;5109208;28;20035;-28
2022/05/21 03:54:34;;;;;;;30.83;12.63;;;;;;;11.19;78.53;100432.25;5109051;28;20468;-29
2022/05/21 03:57:00;;;;;;;32.25;11.95;;;;;;;11.18;79.84;100438.66;5090627;28;20034;-32
2022/05/21 03:59:25;;;;;;;25.17;10.40;;;;;;;11.37;79.63;100433.41;5090518;28;20092;-29
2022/05/21 04:01:51;;;;;;;22.88;9.50;;;;;;;11.37;80.31;100430.72;5108928;28;20024;-30
2022/05/21 04:04:17;;;;;;;24.50;12.38;;;;;;;11.31;82.07;100419.06;5109154;28;20036;-33
2022/05/21 04:06:42;;;;;;;26.60;10.70;;;;;;;11.66;80.16;100431.97;5090424;28;20483;-29
2022/05/21 04:09:09;;;;;;;26.50;11.60;;;;;;;12.16;77.71;100425.84;5108834;28;20035;-30
2022/05/21 04:11:35;;;;;;;21.40;10.20;;;;;;;12.15;77.20;100416.16;5109145;28;20058;-31
2022/05/21 04:14:00;;;;;;;19.10;10.15;;;;;;;12.28;77.20;100418.72;5090330;28;20032;-29
2022/05/21 04:16:26;;;;;;;19.52;10.32;;;;;;;12.48;77.61;100433.72;5108798;28;20495;-29
2022/05/21 04:18:51;;;;;;;17.67;7.95;;;;;;;12.54;76.56;100414.13;5108518;28;20490;-27
2022/05/21 04:21:17;;;;;;;15.85;8.43;;;;;;;12.64;77.23;100406.38;5108923;28;20032;-30
2022/05/21 04:23:42;;;;;;;14.70;7.50;;;;;;;12.64;77.56;100414.41;5108862;28;20028;-29
2022/05/21 04:26:08;;;;;;;16.50;8.68;;;;;;;12.75;76.12;100410.16;5108554;28;20039;-29
2022/05/21 04:28:34;;;;;;;19.33;9.50;;;;;;;13.02;75.08;100419.50;5108385;28;20547;-28
2022/05/21 04:31:00;;;;;;;14.20;6.85;;;;;;;13.09;75.17;100438.16;5108598;28;20037;-31
2022/05/21 04:33:25;;;;;;;10.18;5.40;;;;;;;13.08;75.14;100431.16;5090141;28;20764;-31
2022/05/21 04:38:34;;;;;;;8.40;5.25;;;;;;;12.78;78.04;100418.56;5108613;28;20096;-31
2022/05/21 04:41:00;;;;;;;7.10;4.80;;;;;;;13.27;76.43;100437.28;5107963;28;20043;-32
2022/05/21 04:43:26;;;;;;;8.70;5.25;;;;;;;13.62;75.50;100433.94;5108102;28;20024;-32
2022/05/21 04:45:54;;;;;;;12.27;5.32;;;;;;;13.58;75.49;100428.19;5108102;28;20028;-30
2022/05/21 04:48:20;;;;;;;8.88;5.10;;;;;;;13.66;75.59;100440.47;5089986;28;20111;-28
2022/05/21 04:50:45;;;;;;;10.45;5.28;;;;;;;13.64;75.55;100411.22;5107762;28;20038;-31
2022/05/21 04:53:11;;;;;;;11.98;6.10;;;;;;;13.95;74.76;100433.38;5108111;28;20423;-29
2022/05/21 04:55:36;;;;;;;13.30;6.20;;;;;;;14.32;74.37;100433.16;5108255;28;20178;-29
2022/05/21 04:58:02;;;;;;;10.18;5.32;;;;;;;14.55;72.86;100431.53;5107755;28;20032;-31
2022/05/21 05:00:28;;;;;;;9.55;5.85;;;;;;;14.56;73.08;100438.53;5107537;28;20084;-32
2022/05/21 05:02:53;;;;;;;8.23;5.40;;;;;;;14.58;73.28;100421.13;5107972;28;20023;-28
2022/05/21 05:05:19;;;;;;;19.40;7.38;;;;;;;14.69;73.02;100443.66;5107957;28;20497;-32
2022/05/21 05:07:44;;;;;;;13.07;6.72;;;;;;;14.82;73.15;100435.31;5108105;28;20031;-29
2022/05/21 05:10:10;;;;;;;11.82;5.53;;;;;;;14.66;72.38;100406.53;5107970;28;20124;-33
2022/05/21 05:12:35;;;;;;;7.38;5.65;;;;;;;15.16;71.45;100427.41;5107675;28;20024;-29
2022/05/21 05:15:01;;;;;;;9.10;5.35;;;;;;;15.26;71.58;100408.78;5107401;28;20756;-31
2022/05/21 05:17:28;;;;;;;8.93;5.50;;;;;;;15.33;71.07;100432.00;5089535;28;20038;-31
2022/05/21 05:19:59;;;;;;;11.20;5.88;;;;;;;15.55;70.28;100424.03;5089283;28;20063;-28
2022/05/21 05:22:25;;;;;;;8.10;5.38;;;;;;;15.57;68.46;100428.13;5107303;28;20016;-28
2022/05/21 05:24:50;;;;;;;9.10;4.90;;;;;;;15.43;68.78;100426.81;5107221;28;20035;-28
2022/05/21 05:27:16;;;;;;;8.48;5.60;;;;;;;15.48;67.55;100440.31;5107727;28;20188;-30
2022/05/21 05:29:41;;;;;;;7.88;5.00;;;;;;;15.66;67.79;100431.22;5107294;28;20039;-34
2022/05/21 05:32:08;;;;;;;7.95;5.00;;;;;;;15.70;68.92;100437.72;5107700;28;20663;-29
2022/05/21 05:34:34;;;;;;;8.15;5.38;;;;;;;15.94;68.35;100422.28;5107307;28;20089;-29
2022/05/21 05:37:01;;;;;;;7.88;5.35;;;;;;;15.87;68.35;100410.88;5089009;28;20514;-30
2022/05/21 05:39:26;;;;;;;8.57;5.40;;;;;;;15.96;67.70;100409.41;5085277;28;20068;-31
2022/05/21 05:41:53;;;;;;;7.90;4.88;;;;;;;16.21;66.95;100422.41;5086800;28;20755;-30
2022/05/21 05:44:20;;;;;;;6.65;4.55;;;;;;;16.37;63.52;100426.13;5086996;28;20032;-32
2022/05/21 05:46:48;;;;;;;7.95;5.30;;;;;;;16.37;62.35;100426.13;5085153;28;20035;-29
2022/05/21 05:49:13;;;;;;;;;;;;;;;16.37;63.73;100420.75;5086093;28;20516;-30
2022/05/21 05:51:39;;;;;;;12.20;4.88;;;;;;;16.38;64.51;100410.78;5087197;28;19999;-30
2022/05/21 05:54:05;;;;;;;6.95;4.30;;;;;;;16.81;61.76;100404.63;5086583;28;20110;-32
2022/05/21 05:56:30;;;;;;;8.80;4.72;;;;;;;16.85;62.67;100421.09;5086371;28;20046;-29
2022/05/21 06:01:40;;;;;;;8.23;3.80;;;;;;;17.31;61.09;100420.78;5086605;28;20112;-39
2022/05/21 06:04:05;;;;;;;5.88;3.05;;;;;;;17.49;55.83;100425.81;5086721;28;20024;-30
2022/05/21 06:06:31;;;;;;;5.57;3.50;;;;;;;17.47;55.70;100384.81;5086442;28;20082;-30
2022/05/21 06:08:57;;;;;;;6.22;3.35;;;;;;;17.61;58.22;100421.06;5086390;28;20032;-33
2022/05/21 06:11:23;;;;;;;5.50;3.35;;;;;;;17.43;57.42;100399.88;5085223;28;20028;-30
2022/05/21 06:13:49;;;;;;;6.05;3.25;;;;;;;17.67;56.92;100419.22;5086346;28;20073;-29
2022/05/21 06:16:15;;;;;;;7.90;3.65;;;;;;;17.89;57.37;100415.66;5085192;28;20035;-30
2022/05/21 06:18:42;;;;;;;7.40;3.70;;;;;;;18.06;56.57;100419.81;5084789;28;20027;-34
2022/05/21 06:21:09;;;;;;;6.70;3.70;;;;;;;18.41;55.92;100426.50;5085217;28;20036;-31
2022/05/21 06:23:35;;;;;;;7.00;3.50;;;;;;;18.45;54.32;100426.81;5086262;28;20109;-29
2022/05/21 06:26:02;;;;;;;13.75;4.47;;;;;;;18.44;54.40;100420.56;5086812;28;20598;-29
2022/05/21 06:28:30;;;;;;;8.05;3.75;;;;;;;18.41;56.16;100420.28;5068548;28;20043;-29
2022/05/21 06:30:57;;;;;;;5.22;3.05;;;;;;;18.54;54.81;100414.41;5085159;28;20629;-30
2022/05/21 06:33:28;;;;;;;6.15;3.17;;;;;;;18.78;53.66;100414.78;5085172;28;20024;-29
2022/05/21 06:36:11;;;;;;;7.75;3.35;;;;;;;18.95;53.33;100395.66;5088643;28;20423;-28
2022/05/21 06:38:38;;;;;;;7.80;3.22;;;;;;;18.84;51.93;100397.53;5088839;28;20032;-29
2022/05/21 06:41:04;;;;;;;6.53;4.15;;;;;;;18.87;51.77;100369.16;5088450;28;20048;-32
2022/05/21 06:43:29;;;;;;;6.95;2.90;;;;;;;19.00;51.35;100390.28;5089911;28;20138;-32
2022/05/21 06:45:54;;;;;;;8.05;3.28;;;;;;;19.09;50.47;100389.75;5088519;28;20032;-30
2022/05/21 06:48:20;;;;;;;9.05;3.47;;;;;;;19.16;50.34;100372.19;5089915;28;20024;-29
2022/05/21 06:50:46;;;;;;;6.88;3.00;;;;;;;19.39;51.30;100372.75;5087939;28;20032;-31
2022/05/21 06:53:12;;;;;;;9.02;3.22;;;;;;;19.45;50.52;100375.19;5088382;28;20016;-29
2022/05/21 06:55:39;;;;;;;8.45;3.90;;;;;;;19.46;50.85;100365.19;5088244;28;20039;-29
2022/05/21 06:58:05;;;;;;;7.85;3.28;;;;;;;19.90;48.79;100370.06;5088347;28;20480;-29
2022/05/21 07:00:31;;;;;;;5.57;3.20;;;;;;;19.99;48.64;100387.34;5088126;28;20036;-28
2022/05/21 07:02:57;;;;;;;7.15;2.92;;;;;;;19.95;48.03;100372.75;5088154;28;20057;-31
2022/05/21 07:08:19;;;;;;;3.97;2.40;;;;;;;20.04;47.34;100371.09;5089481;28;20078;-31
2022/05/21 07:10:45;;;;;;;6.47;2.90;;;;;;;20.29;47.39;100372.13;5087413;28;20048;-30
2022/05/21 07:13:11;;;;;;;5.68;2.30;;;;;;;20.21;47.54;100343.69;5087710;28;20117;-30
2022/05/21 07:15:37;;;;;;;5.45;2.20;;;;;;;20.39;45.01;100363.97;5087919;28;20052;-29
2022/05/21 07:18:03;;;;;;;5.30;2.58;;;;;;;20.47;45.59;100360.66;5089133;28;20028;-31
2022/05/21 07:20:29;;;;;;;3.22;2.08;;;;;;;20.66;46.40;100360.06;5089109;28;20117;-34
2022/05/21 07:22:56;;;;;;;6.55;2.88;;;;;;;20.86;45.58;100357.25;5087646;28;20024;-30
2022/05/21 07:25:25;;;;;;;6.90;2.95;;;;;;;20.83;44.52;100333.41;5088986;28;20405;-32
2022/05/21 07:27:51;;;;;;;11.52;4.68;;;;;;;21.18;44.14;100339.66;5087374;28;20032;-29
2022/05/21 07:30:17;;;;;;;7.20;3.03;;;;;;;21.07;45.55;100328.09;5088916;28;20032;-29
2022/05/21 07:32:44;;;;;;;8.15;3.35;;;;;;;21.32;44.84;100309.19;5088892;28;20222;-29
2022/05/21 07:35:15;;;;;;;7.43;2.75;;;;;;;21.32;44.14;100333.59;5088801;28;20038;-34
2022/05/21 07:37:40;;;;;;;6.10;2.25;;;;;;;21.38;44.00;100318.91;5087332;28;20173;-29
2022/05/21 07:40:08;;;;;;;4.55;2.30;;;;;;;21.37;42.33;100317.28;5099384;28;20134;-29
2022/05/21 07:42:33;;;;;;;5.30;2.40;;;;;;;21.67;42.93;100322.44;5090452;28;20031;-30
2022/05/21 07:44:59;;;;;;;5.70;2.20;;;;;;;21.67;40.72;100318.94;5108136;28;20050;-33
2022/05/21 07:47:25;;;;;;;3.58;1.80;;;;;;;21.78;40.44;100297.91;5109097;28;20555;-29
2022/05/21 07:49:52;;;;;;;4.32;1.95;;;;;;;21.92;41.44;100306.97;5090747;28;20088;-29
2022/05/21 07:52:18;;;;;;;5.00;2.00;;;;;;;21.77;39.06;100297.09;5109024;28;20055;-31
2022/05/21 07:54:44;;;;;;;3.30;1.70;;;;;;;21.80;39.82;100279.44;5090291;28;20115;-29
2022/05/21 07:57:09;;;;;;;2.83;1.90;;;;;;;22.31;40.27;100295.13;5108699;28;20115;-33
2022/05/21 07:59:35;;;;;;;8.82;2.40;;;;;;;22.39;40.48;100271.94;5108666;28;20039;-33
2022/05/21 08:02:00;;;;;;;5.18;2.10;;;;;;;22.25;39.84;100267.25;5108945;28;20483;-31
2022/05/21 08:04:26;;;;;;;4.45;1.83;;;;;;;22.33;37.95;100265.78;5108608;28;20077;-29
2022/05/21 08:06:51;;;;;;;6.22;1.90;;;;;;;22.50;41.16;100254.41;5108350;28;20019;-29
2022/05/21 08:09:17;;;;;;;6.30;1.80;;;;;;;22.70;37.32;100280.50;5108652;28;20031;-31
2022/05/21 08:11:42;;;;;;;6.30;1.98;;;;;;;22.64;36.80;100270.78;5108520;28;20035;-32
2022/05/21 08:14:08;;;;;;;3.80;1.98;;;;;;;23.19;38.79;100265.59;5108468;28;20030;-34
2022/05/21 08:16:34;;;;;;;11.48;4.20;;;;;;;23.53;35.78;100269.88;5089436;28;20437;-32
2022/05/21 08:19:01;;;;;;;6.30;2.53;;;;;;;23.53;37.32;100252.75;5089990;28;20038;-29
2022/05/21 08:21:27;;;;;;;13.38;5.10;;;;;;;23.58;35.63;100268.97;5108267;28;20465;-34
2022/05/21 08:29:20;;;;;;;5.93;2.20;;;;;;;24.12;34.66;100236.63;5108208;28;20039;-30
2022/05/21 08:31:46;;;;;;;3.97;2.22;;;;;;;24.60;36.71;100244.28;5089827;28;20032;-32
2022/05/21 08:34:12;;;;;;;19.45;3.15;;;;;;;24.90;36.42;100256.38;5108604;28;20027;-30
2022/05/21 08:36:38;;;;;;;3.88;1.90;;;;;;;25.07;35.08;100244.81;5107740;28;20492;-29
2022/05/21 08:39:03;;;;;;;5.13;2.03;;;;;;;25.06;33.19;100237.72;5089133;28;20036;-29
2022/05/21 08:41:32;;;;;;;5.53;1.80;;;;;;;25.18;32.55;100240.69;5089837;28;20072;-31
2022/05/21 08:44:02;;;;;;;4.18;1.80;;;;;;;25.13;34.34;100237.25;5107817;28;20030;-32
2022/05/21 08:46:46;;;;;;;5.60;1.90;;;;;;;24.95;31.89;100220.00;5107720;28;20024;-31
2022/05/21 08:49:33;;;;;;;3.97;1.70;;;;;;;25.46;32.41;100229.63;5089288;28;20035;-33
2022/05/21 08:52:04;;;;;;;6.55;2.10;;;;;;;25.25;32.89;100230.16;5089256;28;20019;-29
2022/05/21 08:54:34;;;;;;;4.00;1.65;;;;;;;25.82;32.00;100226.66;5089184;28;20065;-33
2022/05/21 08:57:03;;;;;;;4.50;1.92;;;;;;;25.73;32.00;100205.94;5088417;28;20491;-31
2022/05/21 08:59:38;;;;;;;4.53;1.80;;;;;;;26.04;32.11;100212.13;5089240;28;20031;-30
2022/05/21 09:02:10;;;;;;;3.80;1.67;;;;;;;26.17;30.46;100215.03;5089440;28;20032;-31
2022/05/21 09:04:36;;;;;;;2.85;1.50;;;;;;;26.29;30.64;100217.94;5088832;28;20756;-29
2022/05/21 09:07:07;;;;;;;3.53;1.80;;;;;;;25.99;31.77;100203.25;5089041;28;20930;-31
2022/05/21 09:10:00;;;;;;;4.03;1.60;;;;;;;25.81;30.36;100222.34;5107365;28;20099;-38
2022/05/21 09:12:40;;;;;;;5.97;2.05;;;;;;;26.10;30.45;100204.59;5107039;28;20107;-30
2022/05/21 09:15:07;;;;;;;3.70;1.70;;;;;;;26.74;31.45;100201.22;5107563;28;20027;-32
2022/05/21 09:17:42;;;;;;;4.93;1.90;;;;;;;26.91;30.39;100199.56;5088734;28;20456;-30
2022/05/21 09:20:18;;;;;;;4.72;1.70;;;;;;;27.25;30.67;100199.50;5088964;28;20032;-33
2022/05/21 09:22:54;;;;;;;3.72;1.60;;;;;;;27.48;29.63;100190.22;5106727;28;20406;-31
2022/05/21 09:25:23;;;;;;;4.28;1.75;;;;;;;27.56;29.46;100203.88;5107505;28;20030;-30
2022/05/21 09:28:00;;;;;;;3.97;1.80;;;;;;;27.32;30.47;100173.53;5107363;28;20039;-29
2022/05/21 09:30:33;;;;;;;4.50;1.80;;;;;;;27.82;28.70;100162.63;5106998;28;20028;-30
2022/05/21 09:33:26;;;;;;;2.90;1.67;;;;;;;28.00;28.14;100171.56;5088556;28;20100;-30
2022/05/21 09:35:58;;;;;;;5.53;1.80;;;;;;;27.73;30.36;100180.28;5078170;28;20536;-33
2022/05/21 09:38:32;;;;;;;4.10;1.90;;;;;;;27.77;31.01;100173.00;5088689;28;20593;-29
2022/05/21 09:41:20;;;;;;;4.63;1.65;;;;;;;27.79;30.32;100170.72;5088443;28;20226;-32
2022/05/21 09:46:43;;;;;;;2.15;1.45;;;;;;;27.99;28.00;100150.78;5106938;28;20127;-32
2022/05/21 09:49:30;;;;;;;3.78;1.70;;;;;;;27.80;29.22;100139.44;5088498;28;20037;-32
2022/05/21 09:52:02;;;;;;;3.83;1.70;;;;;;;27.80;27.76;100164.09;5088344;28;20107;-32
2022/05/21 09:54:40;;;;;;;3.92;1.48;;;;;;;27.81;29.48;100138.31;5107162;28;20074;-37
2022/05/21 09:57:06;;;;;;;5.25;1.70;;;;;;;27.80;28.34;100153.13;5107037;28;20023;-37
2022/05/21 09:59:33;;;;;;;3.40;1.45;;;;;;;28.03;28.13;100135.28;5088300;28;20055;-31
2022/05/21 10:02:19;;;;;;;2.40;1.30;;;;;;;28.42;25.68;100140.56;5088699;28;20050;-31
2022/05/21 10:04:58;;;;;;;3.92;1.50;;;;;;;28.85;27.86;100145.66;5088281;28;20035;-35
2022/05/21 10:13:17;;;;;;;4.20;1.92;;;;;;;30.02;25.48;100144.28;5111266;28;20030;-30
2022/05/21 10:15:55;;;;;;;6.75;1.90;;;;;;;30.15;25.02;100135.97;5092683;28;20027;-30
2022/05/21 10:18:28;;;;;;;4.10;1.45;;;;;;;29.93;26.87;100131.81;5092340;28;20467;-30
2022/05/21 10:21:02;;;;;;;2.90;1.30;;;;;;;29.36;24.16;100128.91;5110861;28;20035;-35
2022/05/21 10:23:41;;;;;;;17.67;2.58;;;;;;;29.50;25.21;100114.00;5092383;28;20570;-36
2022/05/21 10:26:31;;;;;;;2.15;1.55;;;;;;;29.57;24.34;100114.22;5092251;28;20112;-32
2022/05/21 10:29:15;;;;;;;3.10;1.50;;;;;;;29.57;25.07;100112.28;5092105;28;20027;-33
2022/05/21 10:32:13;;;;;;;4.18;1.25;;;;;;;29.75;23.31;100117.53;5110368;28;20035;-29
2022/05/21 10:34:45;;;;;;;3.38;1.50;;;;;;;29.49;25.13;100110.47;5091223;28;20050;-35
2022/05/21 10:37:31;;;;;;;3.65;1.55;;;;;;;29.60;25.51;100114.31;5110102;28;20456;-30
2022/05/21 10:40:17;;;;;;;3.72;1.45;;;;;;;29.41;23.32;100108.63;5109891;28;20060;-30
2022/05/21 10:43:06;;;;;;;4.00;1.38;;;;;;;29.57;23.52;100115.03;5110097;28;20027;-33
2022/05/21 10:46:07;;;;;;;3.53;1.33;;;;;;;30.16;22.94;100101.81;5091811;28;20044;-31
2022/05/21 10:48:55;;;;;;;3.10;1.40;;;;;;;29.98;23.77;100110.38;5091213;28;20038;-32
2022/05/21 10:51:31;;;;;;;2.60;1.67;;;;;;;30.37;24.65;100091.44;5110110;28;20112;-30
2022/05/21 10:54:20;;;;;;;3.33;1.42;;;;;;;30.54;23.65;100104.06;5109860;28;20058;-33
2022/05/21 10:57:02;;;;;;;4.10;1.40;;;;;;;30.64;23.96;100088.97;5109942;28;20780;-30
2022/05/21 10:59:28;;;;;;;4.65;1.35;;;;;;;30.90;23.20;100104.22;5091661;28;20488;-33
2022/05/21 11:01:53;;;;;;;3.50;1.25;;;;;;;30.91;22.67;100097.53;5109658;28;20109;-30
2022/05/21 11:04:24;;;;;;;2.65;1.40;;;;;;;30.94;21.40;100094.09;5109772;28;20032;-32
2022/05/21 11:07:08;;;;;;;3.80;1.50;;;;;;;31.10;20.21;100089.38;5109252;28;20499;-33
2022/05/21 11:09:48;;;;;;;2.53;1.30;;;;;;;31.00;21.27;100076.94;5091721;28;20087;-32
2022/05/21 11:12:21;;;;;;;4.15;1.35;;;;;;;30.77;20.65;100079.50;5091382;28;20032;-33
2022/05/21 11:14:52;;;;;;;4.18;1.55;;;;;;;31.07;20.56;100081.81;5090892;28;20114;-37
2022/05/21 11:17:36;;;;;;;2.63;1.17;;;;;;;31.72;20.20;100083.28;5090032;28;20062;-32
2022/05/21 11:20:17;;;;;;;1.40;1.08;;;;;;;31.61;19.17;100083.84;5108646;28;20023;-32
2022/05/21 11:23:01;;;;;;;4.05;1.65;;;;;;;32.18;18.09;100072.41;5090876;28;20024;-30
2022/05/21 11:26:01;;;;;;;3.97;1.10;;;;;;;32.45;19.33;100076.06;5109270;28;20028;-30
2022/05/21 11:28:44;;;;;;;2.88;1.10;;;;;;;32.68;18.52;100064.25;5075562;28;20075;-30
2022/05/21 11:37:19;;;;;;;4.00;1.40;;;;;;;32.48;18.55;100069.00;5109631;28;20035;-30
2022/05/21 11:39:38;;;;;;;4.03;1.70;;;;;;;33.29;18.75;100060.50;5109479;28;20054;-30
2022/05/21 11:42:03;;;;;;;4.88;1.55;;;;;;;33.46;19.26;100061.13;5090541;28;20047;-30
2022/05/21 11:44:57;;;;;;;2.10;1.30;;;;;;;33.00;17.24;100057.28;5090057;28;20599;-32
2022/05/21 11:47:23;;;;;;;2.47;1.10;;;;;;;32.90;17.87;100046.09;5108980;28;20529;-30
2022/05/21 11:49:52;;;;;;;2.45;1.30;;;;;;;33.36;16.44;100045.97;5090720;28;20110;-30
2022/05/21 11:52:27;;;;;;;3.40;1.35;;;;;;;33.32;17.26;100042.38;5108909;28;20034;-32
2022/05/21 11:55:10;;;;;;;1.80;1.00;;;;;;;33.57;17.31;100046.28;5108560;28;20027;-32
2022/05/21 11:57:38;;;;;;;3.67;1.30;;;;;;;33.57;18.95;100032.44;5109268;28;20446;-33
2022/05/21 12:00:24;;;;;;;3.67;1.20;;;;;;;32.99;17.85;100032.78;5090239;28;20028;-31
2022/05/21 12:02:58;;;;;;;3.67;1.20;;;;;;;33.19;18.66;100025.22;5090168;28;20057;-30
2022/05/21 12:05:33;;;;;;;3.35;1.30;;;;;;;33.69;19.07;100025.09;5090016;28;20077;-30
2022/05/21 12:08:14;;;;;;;2.47;1.10;;;;;;;33.51;15.66;100020.13;5090279;28;20035;-37
2022/05/21 12:10:55;;;;;;;2.00;1.02;;;;;;;33.39;17.52;100020.38;5108421;28;20028;-30